sensor_id;sensor_type;location;lat;lon;timestamp;pressure;altitude;pressure_sealevel;temperature;humidity
37200;BME280;23096;50.892;16.746;2023-04-03T00:01:37;100135.77;;;1.15;70.21
37200;BME280;23096;50.892;16.746;2023-04-03T00:04:04;100137.89;;;1.11;70.14
37200;BME280;23096;50.892;16.746;2023-04-03T00:06:31;100134.59;;;1.07;70.26
37200;BME280;23096;50.892;16.746;2023-04-03T00:08:57;100137.59;;;1.05;70.24
37200;BME280;23096;50.892;16.746;2023-04-03T00:11:23;100134.30;;;1.02;70.16
37200;BME280;23096;50.892;16.746;2023-04-03T00:13:48;100133.20;;;0.98;70.12
37200;BME280;23096;50.892;16.746;2023-04-03T00:16:14;100133.50;;;0.96;70.15
37200;BME280;23096;50.892;16.746;2023-04-03T00:18:40;100136.52;;;0.94;70.16
37200;BME280;23096;50.892;16.746;2023-04-03T00:21:07;100137.48;;;0.92;70.19
37200;BME280;23096;50.892;16.746;2023-04-03T00:23:33;100138.95;;;0.89;69.96
37200;BME280;23096;50.892;16.746;2023-04-03T00:26:00;100140.27;;;0.88;70.17
37200;BME280;23096;50.892;16.746;2023-04-03T00:28:25;100140.24;;;0.87;70.12
37200;BME280;23096;50.892;16.746;2023-04-03T00:30:52;100136.35;;;0.87;70.08
37200;BME280;23096;50.892;16.746;2023-04-03T00:33:18;100140.02;;;0.84;70.11
37200;BME280;23096;50.892;16.746;2023-04-03T00:35:47;100142.27;;;0.79;70.08
37200;BME280;23096;50.892;16.746;2023-04-03T00:38:13;100142.60;;;0.78;70.04
37200;BME280;23096;50.892;16.746;2023-04-03T00:40:44;100142.86;;;0.74;70.16
37200;BME280;23096;50.892;16.746;2023-04-03T00:43:13;100143.39;;;0.68;70.03
37200;BME280;23096;50.892;16.746;2023-04-03T00:45:42;100142.23;;;0.61;70.18
37200;BME280;23096;50.892;16.746;2023-04-03T00:48:12;100140.86;;;0.61;70.15
37200;BME280;23096;50.892;16.746;2023-04-03T00:50:40;100142.52;;;0.60;70.01
37200;BME280;23096;50.892;16.746;2023-04-03T00:53:09;100139.85;;;0.53;70.04
37200;BME280;23096;50.892;16.746;2023-04-03T00:55:38;100139.27;;;0.50;70.10
37200;BME280;23096;50.892;16.746;2023-04-03T00:58:04;100137.37;;;0.48;70.06
37200;BME280;23096;50.892;16.746;2023-04-03T01:00:32;100141.54;;;0.46;70.08
37200;BME280;23096;50.892;16.746;2023-04-03T01:02:58;100143.16;;;0.43;70.05
37200;BME280;23096;50.892;16.746;2023-04-03T01:05:26;100143.48;;;0.42;70.07
37200;BME280;23096;50.892;16.746;2023-04-03T01:07:52;100147.74;;;0.37;70.10
37200;BME280;23096;50.892;16.746;2023-04-03T01:10:19;100151.71;;;0.33;70.11
37200;BME280;23096;50.892;16.746;2023-04-03T01:12:49;100150.46;;;0.30;70.23
37200;BME280;23096;50.892;16.746;2023-04-03T01:15:21;100153.10;;;0.27;70.12
37200;BME280;23096;50.892;16.746;2023-04-03T01:18:09;100155.89;;;0.24;70.13
37200;BME280;23096;50.892;16.746;2023-04-03T01:23:33;100161.79;;;0.24;70.29
37200;BME280;23096;50.892;16.746;2023-04-03T01:26:02;100158.02;;;0.21;70.20
37200;BME280;23096;50.892;16.746;2023-04-03T01:28:34;100160.04;;;0.21;70.28
37200;BME280;23096;50.892;16.746;2023-04-03T01:31:18;100161.85;;;0.19;70.22
37200;BME280;23096;50.892;16.746;2023-04-03T01:33:46;100166.01;;;0.16;70.30
37200;BME280;23096;50.892;16.746;2023-04-03T01:36:21;100168.13;;;0.13;70.27
37200;BME280;23096;50.892;16.746;2023-04-03T01:38:50;100172.31;;;0.11;70.29
37200;BME280;23096;50.892;16.746;2023-04-03T01:41:18;100176.64;;;0.09;70.32
37200;BME280;23096;50.892;16.746;2023-04-03T01:43:48;100178.10;;;0.07;70.31
37200;BME280;23096;50.892;16.746;2023-04-03T01:46:17;100178.44;;;0.07;70.29
37200;BME280;23096;50.892;16.746;2023-04-03T01:48:44;100178.30;;;0.07;70.31
37200;BME280;23096;50.892;16.746;2023-04-03T01:51:09;100182.02;;;0.08;70.44
37200;BME280;23096;50.892;16.746;2023-04-03T01:53:36;100188.20;;;0.05;70.30
37200;BME280;23096;50.892;16.746;2023-04-03T01:56:02;100186.94;;;0.02;70.44
37200;BME280;23096;50.892;16.746;2023-04-03T01:58:29;100185.32;;;-0.02;70.36
37200;BME280;23096;50.892;16.746;2023-04-03T02:00:55;100186.55;;;-0.07;70.43
37200;BME280;23096;50.892;16.746;2023-04-03T02:03:21;100188.52;;;-0.09;70.43
37200;BME280;23096;50.892;16.746;2023-04-03T02:05:47;100190.35;;;-0.10;70.41
37200;BME280;23096;50.892;16.746;2023-04-03T02:08:13;100190.85;;;-0.10;70.47
37200;BME280;23096;50.892;16.746;2023-04-03T02:10:39;100191.60;;;-0.13;70.46
37200;BME280;23096;50.892;16.746;2023-04-03T02:13:05;100195.45;;;-0.15;70.51
37200;BME280;23096;50.892;16.746;2023-04-03T02:15:31;100191.02;;;-0.16;70.55
37200;BME280;23096;50.892;16.746;2023-04-03T02:17:59;100188.47;;;-0.17;70.61
37200;BME280;23096;50.892;16.746;2023-04-03T02:20:25;100191.10;;;-0.20;70.57
37200;BME280;23096;50.892;16.746;2023-04-03T02:22:51;100191.92;;;-0.21;70.75
37200;BME280;23096;50.892;16.746;2023-04-03T02:25:17;100198.03;;;-0.20;70.70
37200;BME280;23096;50.892;16.746;2023-04-03T02:27:43;100191.63;;;-0.19;70.85
37200;BME280;23096;50.892;16.746;2023-04-03T02:30:08;100196.41;;;-0.17;70.82
37200;BME280;23096;50.892;16.746;2023-04-03T02:32:36;100195.91;;;-0.17;70.68
37200;BME280;23096;50.892;16.746;2023-04-03T11:36:50;100341.13;;;2.97;62.94
37200;BME280;23096;50.892;16.746;2023-04-03T11:39:25;100337.84;;;3.13;62.51
37200;BME280;23096;50.892;16.746;2023-04-03T11:41:52;100340.73;;;3.13;62.41
37200;BME280;23096;50.892;16.746;2023-04-03T11:44:32;100339.73;;;3.04;62.29
37200;BME280;23096;50.892;16.746;2023-04-03T11:46:59;100342.94;;;2.93;62.04
37200;BME280;23096;50.892;16.746;2023-04-03T11:49:51;100340.35;;;2.90;62.02
37200;BME280;23096;50.892;16.746;2023-04-03T11:52:58;100340.30;;;2.87;61.84
37200;BME280;23096;50.892;16.746;2023-04-03T12:16:30;100327.50;;;3.04;61.04
37200;BME280;23096;50.892;16.746;2023-04-03T12:19:01;100323.46;;;3.16;60.69
37200;BME280;23096;50.892;16.746;2023-04-03T12:35:21;100315.97;;;3.15;60.00
37200;BME280;23096;50.892;16.746;2023-04-03T12:46:11;100327.33;;;3.03;59.26
37200;BME280;23096;50.892;16.746;2023-04-03T12:48:51;100326.46;;;3.02;59.27
37200;BME280;23096;50.892;16.746;2023-04-03T12:51:39;100319.64;;;3.11;59.21
37200;BME280;23096;50.892;16.746;2023-04-03T12:54:19;100320.02;;;3.36;59.37
37200;BME280;23096;50.892;16.746;2023-04-03T12:56:47;100319.54;;;3.51;59.00
37200;BME280;23096;50.892;16.746;2023-04-03T12:59:18;100318.19;;;3.40;58.56
37200;BME280;23096;50.892;16.746;2023-04-03T13:01:53;100316.63;;;3.26;58.49
37200;BME280;23096;50.892;16.746;2023-04-03T13:04:20;100313.40;;;3.25;58.47
37200;BME280;23096;50.892;16.746;2023-04-03T13:06:45;100311.09;;;3.41;58.48
37200;BME280;23096;50.892;16.746;2023-04-03T13:09:29;100310.13;;;3.57;58.18
37200;BME280;23096;50.892;16.746;2023-04-03T13:12:07;100306.48;;;3.65;58.22
37200;BME280;23096;50.892;16.746;2023-04-03T13:14:36;100315.73;;;3.71;57.85
37200;BME280;23096;50.892;16.746;2023-04-03T13:17:20;100313.44;;;3.64;57.50
37200;BME280;23096;50.892;16.746;2023-04-03T13:19:46;100315.87;;;3.43;57.35
37200;BME280;23096;50.892;16.746;2023-04-03T13:22:44;100317.11;;;3.35;57.44
37200;BME280;23096;50.892;16.746;2023-04-03T13:25:13;100312.36;;;3.24;57.28
37200;BME280;23096;50.892;16.746;2023-04-03T13:27:40;100317.23;;;3.20;57.20
37200;BME280;23096;50.892;16.746;2023-04-03T13:30:30;100313.23;;;3.25;57.28
37200;BME280;23096;50.892;16.746;2023-04-03T13:32:58;100308.59;;;3.46;57.49
37200;BME280;23096;50.892;16.746;2023-04-03T13:37:56;100298.30;;;3.90;57.27
37200;BME280;23096;50.892;16.746;2023-04-03T13:40:22;100301.70;;;4.04;57.24
37200;BME280;23096;50.892;16.746;2023-04-03T13:43:03;100306.25;;;4.01;56.93
37200;BME280;23096;50.892;16.746;2023-04-03T13:45:30;100312.66;;;3.84;56.68
37200;BME280;23096;50.892;16.746;2023-04-03T13:48:17;100313.41;;;3.75;56.52
37200;BME280;23096;50.892;16.746;2023-04-03T13:50:57;100311.89;;;3.63;56.41
37200;BME280;23096;50.892;16.746;2023-04-03T13:53:25;100306.77;;;3.48;56.31
37200;BME280;23096;50.892;16.746;2023-04-03T13:56:07;100306.29;;;3.51;56.37
37200;BME280;23096;50.892;16.746;2023-04-03T13:58:36;100304.83;;;3.69;56.43
37200;BME280;23096;50.892;16.746;2023-04-03T14:01:17;100300.18;;;3.77;56.17
37200;BME280;23096;50.892;16.746;2023-04-03T14:03:57;100304.48;;;3.68;55.92
37200;BME280;23096;50.892;16.746;2023-04-03T14:06:24;100302.02;;;3.61;55.82
37200;BME280;23096;50.892;16.746;2023-04-03T14:08:50;100302.07;;;3.53;55.83
37200;BME280;23096;50.892;16.746;2023-04-03T14:11:35;100307.29;;;3.48;55.78
37200;BME280;23096;50.892;16.746;2023-04-03T14:14:05;100306.02;;;3.43;55.68
37200;BME280;23096;50.892;16.746;2023-04-03T14:16:33;100301.11;;;3.44;55.80
37200;BME280;23096;50.892;16.746;2023-04-03T14:19:02;100298.88;;;3.55;55.84
37200;BME280;23096;50.892;16.746;2023-04-03T14:21:28;100296.23;;;3.74;55.74
37200;BME280;23096;50.892;16.746;2023-04-03T14:23:53;100298.05;;;3.83;55.70
37200;BME280;23096;50.892;16.746;2023-04-03T14:26:22;100297.25;;;3.75;55.35
37200;BME280;23096;50.892;16.746;2023-04-03T14:28:50;100301.76;;;3.68;55.28
37200;BME280;23096;50.892;16.746;2023-04-03T14:31:18;100301.05;;;3.66;55.27
37200;BME280;23096;50.892;16.746;2023-04-03T14:33:44;100299.88;;;3.66;55.13
37200;BME280;23096;50.892;16.746;2023-04-03T14:36:15;100295.80;;;3.81;55.42
37200;BME280;23096;50.892;16.746;2023-04-03T14:38:43;100284.77;;;3.96;55.34
37200;BME280;23096;50.892;16.746;2023-04-03T14:41:12;100284.96;;;3.99;55.21
37200;BME280;23096;50.892;16.746;2023-04-03T14:43:38;100276.88;;;4.05;55.12
37200;BME280;23096;50.892;16.746;2023-04-03T14:46:05;100280.67;;;4.10;55.03
37200;BME280;23096;50.892;16.746;2023-04-03T14:48:31;100282.88;;;4.10;54.85
37200;BME280;23096;50.892;16.746;2023-04-03T14:50:57;100287.45;;;4.08;54.93
37200;BME280;23096;50.892;16.746;2023-04-03T14:53:22;100288.70;;;4.13;55.06
37200;BME280;23096;50.892;16.746;2023-04-03T14:55:50;100283.08;;;4.13;54.81
37200;BME280;23096;50.892;16.746;2023-04-03T14:58:19;100284.50;;;4.02;54.55
37200;BME280;23096;50.892;16.746;2023-04-03T15:00:46;100287.26;;;3.91;54.49
37200;BME280;23096;50.892;16.746;2023-04-03T15:03:14;100286.09;;;3.78;54.38
37200;BME280;23096;50.892;16.746;2023-04-03T15:05:41;100289.01;;;3.68;54.36
37200;BME280;23096;50.892;16.746;2023-04-03T15:08:25;100291.13;;;3.60;54.29
37200;BME280;23096;50.892;16.746;2023-04-03T15:10:52;100296.71;;;3.59;54.47
37200;BME280;23096;50.892;16.746;2023-04-03T15:13:19;100298.09;;;3.60;54.26
37200;BME280;23096;50.892;16.746;2023-04-03T15:15:46;100295.54;;;3.60;54.34
37200;BME280;23096;50.892;16.746;2023-04-03T15:18:15;100295.71;;;3.60;54.15
37200;BME280;23096;50.892;16.746;2023-04-03T15:20:42;100299.58;;;3.69;54.39
37200;BME280;23096;50.892;16.746;2023-04-03T15:23:10;100285.98;;;3.84;54.36
37200;BME280;23096;50.892;16.746;2023-04-03T15:25:36;100294.13;;;3.84;54.05
37200;BME280;23096;50.892;16.746;2023-04-03T15:28:01;100298.66;;;3.77;53.86
37200;BME280;23096;50.892;16.746;2023-04-03T15:30:27;100301.41;;;3.69;53.74
37200;BME280;23096;50.892;16.746;2023-04-03T15:32:52;100298.08;;;3.59;53.60
37200;BME280;23096;50.892;16.746;2023-04-03T15:35:18;100299.66;;;3.63;53.64
37200;BME280;23096;50.892;16.746;2023-04-03T15:37:44;100298.02;;;3.68;53.62
37200;BME280;23096;50.892;16.746;2023-04-03T15:40:10;100298.14;;;3.64;53.68
37200;BME280;23096;50.892;16.746;2023-04-03T15:42:35;100301.63;;;3.58;53.43
37200;BME280;23096;50.892;16.746;2023-04-03T15:45:01;100300.37;;;3.53;53.47
37200;BME280;23096;50.892;16.746;2023-04-03T15:47:27;100303.36;;;3.48;53.50
37200;BME280;23096;50.892;16.746;2023-04-03T15:49:54;100303.28;;;3.42;53.36
37200;BME280;23096;50.892;16.746;2023-04-03T15:52:20;100304.77;;;3.39;53.40
37200;BME280;23096;50.892;16.746;2023-04-03T15:54:46;100299.10;;;3.34;53.41
37200;BME280;23096;50.892;16.746;2023-04-03T15:57:11;100302.89;;;3.27;53.37
37200;BME280;23096;50.892;16.746;2023-04-03T15:59:37;100311.69;;;3.24;53.42
37200;BME280;23096;50.892;16.746;2023-04-03T16:02:06;100313.17;;;3.22;53.33
37200;BME280;23096;50.892;16.746;2023-04-03T16:04:33;100311.08;;;3.17;53.45
37200;BME280;23096;50.892;16.746;2023-04-03T16:07:03;100313.23;;;3.14;53.61
37200;BME280;23096;50.892;16.746;2023-04-03T16:09:30;100310.13;;;3.11;53.50
37200;BME280;23096;50.892;16.746;2023-04-03T16:11:56;100310.58;;;3.07;53.64
37200;BME280;23096;50.892;16.746;2023-04-03T16:14:22;100310.54;;;3.04;53.48
37200;BME280;23096;50.892;16.746;2023-04-03T16:16:48;100310.49;;;3.02;53.54
37200;BME280;23096;50.892;16.746;2023-04-03T16:19:13;100314.17;;;2.99;53.53
37200;BME280;23096;50.892;16.746;2023-04-03T16:21:39;100313.96;;;2.96;53.71
37200;BME280;23096;50.892;16.746;2023-04-03T16:24:05;100317.65;;;2.93;53.60
37200;BME280;23096;50.892;16.746;2023-04-03T16:26:31;100318.82;;;2.91;53.67
37200;BME280;23096;50.892;16.746;2023-04-03T16:28:57;100321.51;;;2.89;53.70
37200;BME280;23096;50.892;16.746;2023-04-03T16:31:23;100328.09;;;2.88;53.70
37200;BME280;23096;50.892;16.746;2023-04-03T16:33:50;100325.85;;;2.85;53.85
37200;BME280;23096;50.892;16.746;2023-04-03T16:36:15;100332.11;;;2.84;53.86
37200;BME280;23096;50.892;16.746;2023-04-03T16:38:41;100333.45;;;2.83;53.93
37200;BME280;23096;50.892;16.746;2023-04-03T16:41:07;100335.30;;;2.83;53.88
37200;BME280;23096;50.892;16.746;2023-04-03T16:43:33;100337.99;;;2.81;53.93
37200;BME280;23096;50.892;16.746;2023-04-03T16:45:59;100334.90;;;2.79;53.89
37200;BME280;23096;50.892;16.746;2023-04-03T16:48:24;100333.52;;;2.78;54.12
37200;BME280;23096;50.892;16.746;2023-04-03T16:50:50;100335.71;;;2.76;54.00
37200;BME280;23096;50.892;16.746;2023-04-03T16:53:20;100339.58;;;2.74;54.10
37200;BME280;23096;50.892;16.746;2023-04-03T16:55:46;100341.03;;;2.71;54.12
37200;BME280;23096;50.892;16.746;2023-04-03T16:58:11;100343.05;;;2.69;54.10
37200;BME280;23096;50.892;16.746;2023-04-03T17:00:37;100338.09;;;2.66;53.99
37200;BME280;23096;50.892;16.746;2023-04-03T17:03:03;100343.46;;;2.63;54.17
37200;BME280;23096;50.892;16.746;2023-04-03T17:05:29;100342.06;;;2.61;54.24
37200;BME280;23096;50.892;16.746;2023-04-03T17:07:54;100341.52;;;2.59;54.34
37200;BME280;23096;50.892;16.746;2023-04-03T17:10:20;100337.91;;;2.57;54.40
37200;BME280;23096;50.892;16.746;2023-04-03T17:12:46;100336.88;;;2.56;54.36
37200;BME280;23096;50.892;16.746;2023-04-03T17:15:11;100340.73;;;2.54;54.50
37200;BME280;23096;50.892;16.746;2023-04-03T17:17:37;100340.70;;;2.52;54.46
37200;BME280;23096;50.892;16.746;2023-04-03T17:20:03;100342.35;;;2.49;54.48
37200;BME280;23096;50.892;16.746;2023-04-03T17:22:29;100343.66;;;2.46;54.57
37200;BME280;23096;50.892;16.746;2023-04-03T17:24:55;100348.19;;;2.44;54.60
37200;BME280;23096;50.892;16.746;2023-04-03T17:27:22;100348.18;;;2.43;54.63
37200;BME280;23096;50.892;16.746;2023-04-03T17:29:47;100350.18;;;2.41;54.68
37200;BME280;23096;50.892;16.746;2023-04-03T17:32:13;100354.73;;;2.40;54.60
37200;BME280;23096;50.892;16.746;2023-04-03T17:34:38;100356.05;;;2.39;54.83
37200;BME280;23096;50.892;16.746;2023-04-03T17:37:04;100358.42;;;2.38;54.85
37200;BME280;23096;50.892;16.746;2023-04-03T17:39:29;100361.63;;;2.37;54.77
37200;BME280;23096;50.892;16.746;2023-04-03T17:41:55;100362.96;;;2.36;54.67
37200;BME280;23096;50.892;16.746;2023-04-03T17:44:21;100366.13;;;2.33;54.81
37200;BME280;23096;50.892;16.746;2023-04-03T17:46:46;100368.62;;;2.30;54.76
37200;BME280;23096;50.892;16.746;2023-04-03T17:49:12;100368.92;;;2.28;54.76
37200;BME280;23096;50.892;16.746;2023-04-03T17:51:40;100371.25;;;2.26;54.80
37200;BME280;23096;50.892;16.746;2023-04-03T17:54:06;100372.73;;;2.23;54.82
37200;BME280;23096;50.892;16.746;2023-04-03T17:56:32;100370.83;;;2.21;54.93
37200;BME280;23096;50.892;16.746;2023-04-03T17:58:58;100373.66;;;2.20;54.85
37200;BME280;23096;50.892;16.746;2023-04-03T18:01:28;100371.43;;;2.18;54.87
37200;BME280;23096;50.892;16.746;2023-04-03T18:03:56;100373.27;;;2.17;54.97
37200;BME280;23096;50.892;16.746;2023-04-03T18:06:26;100372.23;;;2.16;55.02
37200;BME280;23096;50.892;16.746;2023-04-03T18:09:04;100370.69;;;2.15;55.01
37200;BME280;23096;50.892;16.746;2023-04-03T18:11:32;100370.30;;;2.12;55.06
37200;BME280;23096;50.892;16.746;2023-04-03T18:13:59;100370.77;;;2.11;55.01
37200;BME280;23096;50.892;16.746;2023-04-03T18:16:25;100371.45;;;2.11;55.20
37200;BME280;23096;50.892;16.746;2023-04-03T18:18:52;100371.81;;;2.11;55.29
37200;BME280;23096;50.892;16.746;2023-04-03T18:21:17;100372.82;;;2.11;55.27
37200;BME280;23096;50.892;16.746;2023-04-03T18:23:49;100373.48;;;2.10;55.28
37200;BME280;23096;50.892;16.746;2023-04-03T18:26:17;100373.81;;;2.09;55.37
37200;BME280;23096;50.892;16.746;2023-04-03T18:28:45;100375.98;;;2.08;55.20
37200;BME280;23096;50.892;16.746;2023-04-03T18:31:14;100377.52;;;2.08;55.36
37200;BME280;23096;50.892;16.746;2023-04-03T18:33:42;100374.96;;;2.08;55.33
37200;BME280;23096;50.892;16.746;2023-04-03T18:36:08;100378.85;;;2.08;55.36
37200;BME280;23096;50.892;16.746;2023-04-03T18:38:34;100379.21;;;2.09;55.32
37200;BME280;23096;50.892;16.746;2023-04-03T18:41:01;100377.33;;;2.08;55.35
37200;BME280;23096;50.892;16.746;2023-04-03T18:43:28;100380.20;;;2.07;55.38
37200;BME280;23096;50.892;16.746;2023-04-03T18:45:54;100377.65;;;2.07;55.48
37200;BME280;23096;50.892;16.746;2023-04-03T18:48:20;100381.02;;;2.06;55.48
37200;BME280;23096;50.892;16.746;2023-04-03T18:50:46;100379.14;;;2.05;55.38
37200;BME280;23096;50.892;16.746;2023-04-03T18:53:12;100380.46;;;2.04;55.44
37200;BME280;23096;50.892;16.746;2023-04-03T18:55:38;100381.47;;;2.03;55.46
37200;BME280;23096;50.892;16.746;2023-04-03T18:58:04;100373.30;;;2.01;55.49
37200;BME280;23096;50.892;16.746;2023-04-03T19:00:30;100375.16;;;2.01;55.54
37200;BME280;23096;50.892;16.746;2023-04-03T19:02:56;100375.49;;;2.01;55.68
37200;BME280;23096;50.892;16.746;2023-04-03T19:05:22;100377.02;;;2.00;55.65
37200;BME280;23096;50.892;16.746;2023-04-03T19:07:48;100374.46;;;2.00;55.60
37200;BME280;23096;50.892;16.746;2023-04-03T19:10:15;100371.25;;;2.00;55.69
37200;BME280;23096;50.892;16.746;2023-04-03T19:12:48;100372.39;;;1.98;55.71
37200;BME280;23096;50.892;16.746;2023-04-03T19:15:16;100372.88;;;1.97;55.68
37200;BME280;23096;50.892;16.746;2023-04-03T19:17:42;100369.33;;;1.97;55.76
37200;BME280;23096;50.892;16.746;2023-04-03T19:20:11;100368.16;;;1.99;55.66
37200;BME280;23096;50.892;16.746;2023-04-03T19:22:37;100370.91;;;2.00;55.70
37200;BME280;23096;50.892;16.746;2023-04-03T19:25:04;100370.77;;;2.02;55.64
37200;BME280;23096;50.892;16.746;2023-04-03T19:27:31;100376.14;;;1.99;55.70
37200;BME280;23096;50.892;16.746;2023-04-03T19:29:57;100374.52;;;1.95;55.90
37200;BME280;23096;50.892;16.746;2023-04-03T19:32:23;100374.29;;;1.92;55.81
37200;BME280;23096;50.892;16.746;2023-04-03T19:34:49;100376.65;;;1.91;55.88
37200;BME280;23096;50.892;16.746;2023-04-03T19:37:15;100372.84;;;1.95;55.93
37200;BME280;23096;50.892;16.746;2023-04-03T19:39:41;100371.73;;;1.99;55.85
37200;BME280;23096;50.892;16.746;2023-04-03T19:42:07;100372.61;;;2.01;55.96
37200;BME280;23096;50.892;16.746;2023-04-03T19:44:33;100374.33;;;2.01;56.14
37200;BME280;23096;50.892;16.746;2023-04-03T19:47:00;100373.92;;;1.98;56.13
37200;BME280;23096;50.892;16.746;2023-04-03T19:49:26;100376.55;;;1.95;56.07
37200;BME280;23096;50.892;16.746;2023-04-03T19:51:52;100375.83;;;1.92;56.03
37200;BME280;23096;50.892;16.746;2023-04-03T19:54:18;100373.70;;;1.87;56.29
37200;BME280;23096;50.892;16.746;2023-04-03T19:56:44;100371.79;;;1.86;56.39
37200;BME280;23096;50.892;16.746;2023-04-03T19:59:10;100372.25;;;1.84;56.38
37200;BME280;23096;50.892;16.746;2023-04-03T20:01:36;100370.01;;;1.82;56.37
37200;BME280;23096;50.892;16.746;2023-04-03T20:04:02;100369.48;;;1.81;56.41
37200;BME280;23096;50.892;16.746;2023-04-03T20:06:27;100369.30;;;1.81;56.67
37200;BME280;23096;50.892;16.746;2023-04-03T20:08:53;100367.75;;;1.79;56.61
37200;BME280;23096;50.892;16.746;2023-04-03T20:11:19;100368.89;;;1.78;56.79
37200;BME280;23096;50.892;16.746;2023-04-03T20:13:49;100365.79;;;1.74;56.69
37200;BME280;23096;50.892;16.746;2023-04-03T20:16:15;100366.28;;;1.74;56.83
37200;BME280;23096;50.892;16.746;2023-04-03T20:18:43;100370.74;;;1.77;57.04
37200;BME280;23096;50.892;16.746;2023-04-03T20:21:09;100370.78;;;1.78;56.99
37200;BME280;23096;50.892;16.746;2023-04-03T20:23:37;100367.90;;;1.79;57.19
37200;BME280;23096;50.892;16.746;2023-04-03T20:26:05;100370.31;;;1.80;57.23
37200;BME280;23096;50.892;16.746;2023-04-03T20:28:32;100368.47;;;1.81;57.38
37200;BME280;23096;50.892;16.746;2023-04-03T20:30:58;100371.48;;;1.80;57.35
37200;BME280;23096;50.892;16.746;2023-04-03T20:33:26;100367.48;;;1.75;57.37
37200;BME280;23096;50.892;16.746;2023-04-03T20:35:55;100371.98;;;1.72;57.33
37200;BME280;23096;50.892;16.746;2023-04-03T20:38:21;100371.55;;;1.67;57.36
37200;BME280;23096;50.892;16.746;2023-04-03T20:40:47;100371.09;;;1.62;57.39
37200;BME280;23096;50.892;16.746;2023-04-03T20:43:13;100366.95;;;1.58;57.39
37200;BME280;23096;50.892;16.746;2023-04-03T20:45:39;100360.44;;;1.55;57.64
37200;BME280;23096;50.892;16.746;2023-04-03T20:48:05;100358.91;;;1.55;57.68
37200;BME280;23096;50.892;16.746;2023-04-03T20:50:44;100360.59;;;1.54;57.72
37200;BME280;23096;50.892;16.746;2023-04-03T20:53:10;100357.17;;;1.52;57.72
37200;BME280;23096;50.892;16.746;2023-04-03T20:55:36;100359.36;;;1.52;57.85
37200;BME280;23096;50.892;16.746;2023-04-03T20:58:03;100358.33;;;1.51;57.93
37200;BME280;23096;50.892;16.746;2023-04-03T21:00:31;100358.17;;;1.52;57.97
37200;BME280;23096;50.892;16.746;2023-04-03T21:03:01;100357.31;;;1.52;58.17
37200;BME280;23096;50.892;16.746;2023-04-03T21:05:27;100356.16;;;1.53;58.19
37200;BME280;23096;50.892;16.746;2023-04-03T21:19:26;100357.20;;;1.39;58.35
37200;BME280;23096;50.892;16.746;2023-04-03T21:21:52;100358.48;;;1.36;58.59
37200;BME280;23096;50.892;16.746;2023-04-03T21:24:20;100358.10;;;1.33;58.46
37200;BME280;23096;50.892;16.746;2023-04-03T21:26:46;100362.48;;;1.33;58.49
37200;BME280;23096;50.892;16.746;2023-04-03T21:29:13;100363.80;;;1.31;58.66
37200;BME280;23096;50.892;16.746;2023-04-03T21:32:08;100366.63;;;1.29;58.66
37200;BME280;23096;50.892;16.746;2023-04-03T21:34:34;100368.08;;;1.26;58.64
37200;BME280;23096;50.892;16.746;2023-04-03T21:37:01;100372.17;;;1.20;58.58
37200;BME280;23096;50.892;16.746;2023-04-03T21:39:27;100376.13;;;1.15;58.62
37200;BME280;23096;50.892;16.746;2023-04-03T21:41:53;100379.39;;;1.10;58.64
37200;BME280;23096;50.892;16.746;2023-04-03T21:44:19;100376.61;;;1.08;58.70
37200;BME280;23096;50.892;16.746;2023-04-03T21:46:46;100380.25;;;1.05;58.72
37200;BME280;23096;50.892;16.746;2023-04-03T21:49:22;100381.83;;;1.00;58.77
37200;BME280;23096;50.892;16.746;2023-04-03T21:51:49;100380.07;;;0.97;58.78
37200;BME280;23096;50.892;16.746;2023-04-03T21:54:17;100381.52;;;0.94;58.81
37200;BME280;23096;50.892;16.746;2023-04-03T21:56:42;100382.14;;;0.92;58.73
37200;BME280;23096;50.892;16.746;2023-04-03T21:59:08;100384.09;;;0.89;58.83
37200;BME280;23096;50.892;16.746;2023-04-03T22:01:34;100386.95;;;0.88;58.82
37200;BME280;23096;50.892;16.746;2023-04-03T22:04:00;100386.09;;;0.88;58.88
37200;BME280;23096;50.892;16.746;2023-04-03T22:06:27;100382.90;;;0.89;58.98
37200;BME280;23096;50.892;16.746;2023-04-03T22:08:52;100382.77;;;0.90;58.97
37200;BME280;23096;50.892;16.746;2023-04-03T22:11:18;100381.63;;;0.92;59.00
37200;BME280;23096;50.892;16.746;2023-04-03T22:13:50;100378.52;;;0.96;59.00
37200;BME280;23096;50.892;16.746;2023-04-03T22:16:16;100380.48;;;1.00;59.14
37200;BME280;23096;50.892;16.746;2023-04-03T22:18:41;100385.11;;;1.03;59.19
37200;BME280;23096;50.892;16.746;2023-04-03T22:21:07;100384.41;;;1.01;59.14
37200;BME280;23096;50.892;16.746;2023-04-03T22:23:33;100386.96;;;1.02;59.15
37200;BME280;23096;50.892;16.746;2023-04-03T22:26:00;100387.63;;;1.02;59.16
37200;BME280;23096;50.892;16.746;2023-04-03T22:28:28;100385.75;;;1.01;59.27
37200;BME280;23096;50.892;16.746;2023-04-03T22:30:54;100384.84;;;0.99;59.34
37200;BME280;23096;50.892;16.746;2023-04-03T22:33:20;100385.80;;;0.97;59.22
37200;BME280;23096;50.892;16.746;2023-04-03T22:35:47;100385.08;;;0.94;59.16
37200;BME280;23096;50.892;16.746;2023-04-03T22:38:13;100388.05;;;0.91;59.24
37200;BME280;23096;50.892;16.746;2023-04-03T22:40:40;100388.86;;;0.83;59.15
37200;BME280;23096;50.892;16.746;2023-04-03T22:43:06;100392.61;;;0.78;59.29
37200;BME280;23096;50.892;16.746;2023-04-03T22:45:32;100393.85;;;0.74;59.24
37200;BME280;23096;50.892;16.746;2023-04-03T22:47:58;100393.83;;;0.66;59.21
37200;BME280;23096;50.892;16.746;2023-04-03T22:50:24;100391.02;;;0.63;59.44
37200;BME280;23096;50.892;16.746;2023-04-03T22:52:50;100391.73;;;0.64;59.47
37200;BME280;23096;50.892;16.746;2023-04-03T22:55:16;100391.40;;;0.64;59.46
37200;BME280;23096;50.892;16.746;2023-04-03T22:57:46;100392.23;;;0.64;59.55